createdAt,value
2017-08-05T00:00:24.151Z,22.91
2017-08-05T00:02:55.762Z,22.78
2017-08-05T00:05:29.424Z,22.73
2017-08-05T00:08:04.691Z,22.69
2017-08-05T00:10:36.225Z,22.68
2017-08-05T00:13:07.541Z,22.63
2017-08-05T00:15:38.613Z,22.60
2017-08-05T00:18:09.713Z,22.52
2017-08-05T00:20:41.036Z,22.52
2017-08-05T00:23:12.085Z,22.52
2017-08-05T00:25:43.167Z,22.48
2017-08-05T00:28:14.493Z,22.44
2017-08-05T00:30:45.533Z,22.37
2017-08-05T00:33:16.671Z,22.34
2017-08-05T00:35:47.994Z,22.28
2017-08-05T00:38:19.315Z,22.25
2017-08-05T00:40:50.653Z,22.22
2017-08-05T00:43:22.402Z,22.23
2017-08-05T00:45:54.997Z,22.21
2017-08-05T00:48:26.081Z,22.17
2017-08-05T00:50:57.770Z,22.15
2017-08-05T00:53:29.142Z,22.16
2017-08-05T00:56:00.411Z,22.18
2017-08-05T00:58:31.835Z,22.18
2017-08-05T01:01:04.055Z,22.14
2017-08-05T01:03:35.139Z,22.05
2017-08-05T01:06:09.237Z,22.04
2017-08-05T01:08:40.274Z,22.06
2017-08-05T01:11:12.777Z,22.00
2017-08-05T01:13:43.904Z,21.97
2017-08-05T01:16:14.990Z,21.90
2017-08-05T01:18:46.047Z,21.93
2017-08-05T01:21:17.114Z,21.94
2017-08-05T01:26:25.683Z,21.91
2017-08-05T01:28:56.718Z,21.83
2017-08-05T01:31:28.051Z,21.82
2017-08-05T01:33:59.084Z,21.79
2017-08-05T01:36:30.153Z,21.78
2017-08-05T01:39:01.600Z,21.73
2017-08-05T01:41:32.673Z,21.77
2017-08-05T01:44:04.246Z,21.81
2017-08-05T01:46:35.709Z,21.81
2017-08-05T01:49:07.043Z,21.79
2017-08-05T01:51:41.481Z,21.80
2017-08-05T01:54:15.417Z,21.83
2017-08-05T01:56:46.526Z,21.75
2017-08-05T01:59:18.636Z,21.66
2017-08-05T02:01:49.824Z,21.67
2017-08-05T02:04:21.755Z,21.69
2017-08-05T02:06:53.173Z,21.61
2017-08-05T02:09:25.854Z,21.57
2017-08-05T02:11:57.528Z,21.59
2017-08-05T02:14:28.570Z,21.59
2017-08-05T02:16:59.960Z,21.60
2017-08-05T02:19:31.032Z,21.59
2017-08-05T02:22:02.627Z,21.59
2017-08-05T02:24:33.676Z,21.55
2017-08-05T02:27:04.769Z,21.49
2017-08-05T02:29:36.074Z,21.58
2017-08-05T02:32:07.120Z,21.53
2017-08-05T02:34:38.185Z,21.48
2017-08-05T02:37:09.681Z,21.52
2017-08-05T02:39:44.815Z,21.52
2017-08-05T02:42:15.906Z,21.53
2017-08-05T02:47:42.706Z,21.54
2017-08-05T02:50:13.958Z,21.53
2017-08-05T02:52:45.204Z,21.53
2017-08-05T02:55:21.562Z,21.57
2017-08-05T02:57:57.222Z,21.57
2017-08-05T03:00:30.366Z,21.58
2017-08-05T03:03:03.385Z,21.60
2017-08-05T03:05:38.403Z,21.57
2017-08-05T03:08:10.325Z,21.49
2017-08-05T03:10:41.412Z,21.47
2017-08-05T03:13:12.506Z,21.44
2017-08-05T03:15:43.572Z,21.42
2017-08-05T03:18:14.825Z,21.40
2017-08-05T03:20:46.532Z,21.38
2017-08-05T03:23:17.649Z,21.37
2017-08-05T03:25:48.683Z,21.36
2017-08-05T03:28:20.048Z,21.39
2017-08-05T03:30:51.082Z,21.35
2017-08-05T03:33:22.152Z,21.32
2017-08-05T03:35:53.214Z,21.35
2017-08-05T03:38:24.279Z,21.34
2017-08-05T03:40:55.349Z,21.32
2017-08-05T03:43:26.426Z,21.28
2017-08-05T03:45:57.770Z,21.24
2017-08-05T03:48:39.552Z,21.21
2017-08-05T03:51:11.743Z,21.19
2017-08-05T03:53:42.988Z,21.22
2017-08-05T03:56:14.156Z,21.13
2017-08-05T03:58:45.532Z,21.12
2017-08-05T04:01:16.912Z,21.15
2017-08-05T04:03:48.135Z,21.13
2017-08-05T04:06:19.520Z,21.11
2017-08-05T04:08:50.607Z,21.18
2017-08-05T04:11:21.688Z,21.19
2017-08-05T04:13:53.174Z,21.23
2017-08-05T04:16:25.354Z,21.19
2017-08-05T04:18:57.020Z,21.25
2017-08-05T04:21:29.327Z,21.29
2017-08-05T04:24:00.396Z,21.35
2017-08-05T04:26:33.604Z,21.39
2017-08-05T04:29:05.775Z,21.37
2017-08-05T04:31:36.885Z,21.43
2017-08-05T04:34:08.480Z,21.43
2017-08-05T04:36:39.514Z,21.47
2017-08-05T04:39:10.600Z,21.52
2017-08-05T04:41:41.919Z,21.58
2017-08-05T04:44:12.961Z,21.67
2017-08-05T04:46:50.020Z,21.75
2017-08-05T04:49:30.557Z,21.79
2017-08-05T04:52:07.995Z,21.85
2017-08-05T04:54:39.392Z,21.93
2017-08-05T04:57:10.612Z,22.05
2017-08-05T04:59:41.891Z,22.07
2017-08-05T05:02:13.356Z,22.06
2017-08-05T05:04:44.493Z,22.11
2017-08-05T05:07:15.727Z,22.17
2017-08-05T05:09:46.879Z,22.18
2017-08-05T05:12:19.553Z,22.08
2017-08-05T05:14:50.645Z,22.07
2017-08-05T05:17:21.795Z,22.13
2017-08-05T05:19:53.189Z,22.26
2017-08-05T05:22:24.372Z,22.28
2017-08-05T05:24:55.841Z,22.29
2017-08-05T05:27:27.190Z,22.27
2017-08-05T05:29:58.217Z,22.34
2017-08-05T05:32:29.560Z,22.45
2017-08-05T05:35:00.628Z,22.59
2017-08-05T05:37:31.673Z,22.78
2017-08-05T05:40:04.925Z,22.87
2017-08-05T05:42:36.062Z,22.92
2017-08-05T05:45:07.130Z,22.98
2017-08-05T05:47:38.510Z,22.90
2017-08-05T05:50:12.376Z,22.92
2017-08-05T05:52:43.526Z,22.93
2017-08-05T05:55:14.879Z,22.94
2017-08-05T05:57:45.961Z,22.81
2017-08-05T06:00:17.971Z,22.70
2017-08-05T06:02:49.317Z,22.72
2017-08-05T06:05:21.199Z,22.65
2017-08-05T06:07:52.394Z,22.49
2017-08-05T06:10:23.722Z,22.56
2017-08-05T06:12:54.818Z,22.74
2017-08-05T06:15:26.123Z,22.78
2017-08-05T06:17:57.507Z,22.98
2017-08-05T06:20:28.584Z,23.07
2017-08-05T06:22:59.688Z,23.11
2017-08-05T06:25:31.020Z,23.22
2017-08-05T06:28:02.780Z,23.43
2017-08-05T06:30:33.841Z,23.65
2017-08-05T06:33:04.985Z,23.79
2017-08-05T06:35:36.368Z,23.74
2017-08-05T06:38:08.732Z,23.88
2017-08-05T06:40:39.805Z,24.02
2017-08-05T06:43:11.175Z,24.20
2017-08-05T06:45:42.212Z,24.36
2017-08-05T06:48:14.359Z,24.25
2017-08-05T06:50:46.116Z,24.23
2017-08-05T06:53:17.187Z,24.50
2017-08-05T06:55:49.185Z,24.79
2017-08-05T06:58:24.537Z,25.11
2017-08-05T07:00:56.166Z,25.07
2017-08-05T07:03:29.105Z,24.65
2017-08-05T07:06:03.140Z,24.38
2017-08-05T07:08:36.265Z,24.46
2017-08-05T07:11:12.171Z,24.67
2017-08-05T07:13:45.022Z,24.87
2017-08-05T07:16:19.265Z,24.59
2017-08-05T07:18:52.041Z,24.62
2017-08-05T07:21:23.400Z,24.98
2017-08-05T07:23:54.737Z,25.14
2017-08-05T07:26:26.947Z,25.56
2017-08-05T07:28:59.181Z,25.72
2017-08-05T07:31:30.269Z,25.89
2017-08-05T07:34:22.390Z,25.82
2017-08-05T07:39:37.796Z,25.23
2017-08-05T07:42:12.340Z,25.07
2017-08-05T07:44:43.725Z,24.90
2017-08-05T07:47:15.108Z,24.80
2017-08-05T07:49:48.008Z,25.00
2017-08-05T07:52:21.698Z,25.00
2017-08-05T07:54:54.636Z,25.20
2017-08-05T07:57:29.575Z,25.40
2017-08-05T08:00:05.189Z,25.37
2017-08-05T08:02:38.110Z,25.50
2017-08-05T08:05:11.540Z,25.52
2017-08-05T08:07:42.631Z,25.81
2017-08-05T08:10:16.789Z,25.58
2017-08-05T08:12:47.827Z,25.64
2017-08-05T08:15:19.935Z,25.54
2017-08-05T08:17:52.945Z,25.80
2017-08-05T08:20:26.453Z,26.15
2017-08-05T08:22:57.631Z,26.22
2017-08-05T08:25:29.078Z,26.23
2017-08-05T08:28:00.230Z,26.24
2017-08-05T08:30:31.249Z,26.51
2017-08-05T08:33:03.671Z,26.25
2017-08-05T08:35:34.837Z,26.70
2017-08-05T08:38:07.200Z,27.11
2017-08-05T08:40:38.270Z,27.33
2017-08-05T08:43:09.542Z,27.39
2017-08-05T08:45:40.831Z,27.37
2017-08-05T08:48:11.866Z,27.40
2017-08-05T08:50:44.596Z,27.27
2017-08-05T08:53:16.223Z,27.00
2017-08-05T08:55:47.383Z,26.99
2017-08-05T08:58:18.702Z,26.98
2017-08-05T09:00:49.723Z,26.95
2017-08-05T09:03:20.767Z,27.03
2017-08-05T09:05:52.116Z,26.88
2017-08-05T09:08:23.202Z,26.88
2017-08-05T09:10:56.220Z,27.02
2017-08-05T09:13:27.610Z,27.05
2017-08-05T09:15:58.660Z,27.18
2017-08-05T09:18:31.861Z,27.32
2017-08-05T09:21:03.796Z,27.21
2017-08-05T09:23:34.858Z,27.43
2017-08-05T09:26:06.208Z,27.93
2017-08-05T09:28:37.903Z,28.20
2017-08-05T09:31:10.424Z,28.32
2017-08-05T09:33:42.225Z,28.40
2017-08-05T09:36:13.268Z,28.64
2017-08-05T09:38:45.006Z,28.58
2017-08-05T09:41:16.460Z,28.39
2017-08-05T09:43:47.784Z,28.26
2017-08-05T09:46:20.534Z,27.86
2017-08-05T09:48:53.404Z,28.14
2017-08-05T09:51:24.444Z,28.40
2017-08-05T09:53:56.177Z,28.21
2017-08-05T09:56:28.551Z,28.64
2017-08-05T09:59:07.314Z,29.18
2017-08-05T10:01:44.252Z,29.42
2017-08-05T10:04:23.989Z,29.65
2017-08-05T10:07:00.272Z,29.78
2017-08-05T10:09:35.426Z,29.78
2017-08-05T10:12:13.955Z,30.09
2017-08-05T10:14:46.361Z,30.12
2017-08-05T10:17:18.399Z,30.55
2017-08-05T10:19:49.467Z,31.00
2017-08-05T10:22:21.988Z,31.33
2017-08-05T10:24:53.988Z,31.54
2017-08-05T10:27:26.841Z,31.49
2017-08-05T10:29:59.747Z,31.08
2017-08-05T10:32:31.397Z,31.16
2017-08-05T10:35:04.377Z,31.18
2017-08-05T10:37:35.455Z,31.17
2017-08-05T10:40:07.289Z,31.11
2017-08-05T10:42:38.701Z,30.82
2017-08-05T10:45:09.992Z,30.31
2017-08-05T10:47:41.056Z,30.30
2017-08-05T10:50:17.236Z,30.60
2017-08-05T10:52:48.639Z,30.91
2017-08-05T10:55:32.214Z,31.37
2017-08-05T10:58:07.391Z,31.42
2017-08-05T11:00:41.517Z,31.15
2017-08-05T11:03:17.800Z,30.64
2017-08-05T11:05:50.510Z,30.67
2017-08-05T11:08:23.651Z,30.81
2017-08-05T11:11:05.818Z,30.90
2017-08-05T11:13:38.992Z,31.28
2017-08-05T11:16:12.977Z,30.86
2017-08-05T11:18:44.255Z,30.78
2017-08-05T11:21:19.017Z,30.06
2017-08-05T11:23:50.719Z,29.54
2017-08-05T11:26:22.785Z,29.09
2017-08-05T11:28:57.187Z,28.86
2017-08-05T11:31:30.530Z,28.49
2017-08-05T11:34:07.084Z,28.14
2017-08-05T11:36:40.941Z,27.58
2017-08-05T11:39:17.905Z,27.49
2017-08-05T11:41:52.866Z,27.35
2017-08-05T11:44:26.500Z,27.15
2017-08-05T11:47:00.268Z,27.26
2017-08-05T11:49:33.398Z,27.28
2017-08-05T11:52:08.427Z,27.28
2017-08-05T11:54:44.232Z,27.29
2017-08-05T11:57:18.079Z,27.35
2017-08-05T11:59:50.075Z,27.35
2017-08-05T12:02:23.574Z,27.05
2017-08-05T12:04:56.229Z,27.13
2017-08-05T12:07:30.884Z,26.84
2017-08-05T12:10:05.235Z,26.36
2017-08-05T12:12:42.054Z,26.26
2017-08-05T12:15:18.888Z,26.24
2017-08-05T12:17:52.176Z,26.53
2017-08-05T12:20:29.412Z,27.53
2017-08-05T12:23:07.509Z,28.89
2017-08-05T12:25:42.730Z,30.10
2017-08-05T12:28:17.781Z,30.52
2017-08-05T12:30:49.551Z,29.93
2017-08-05T12:33:21.916Z,30.29
2017-08-05T12:35:55.360Z,30.54
2017-08-05T12:38:27.675Z,30.30
2017-08-05T12:41:01.312Z,30.34
2017-08-05T12:43:33.078Z,30.15
2017-08-05T12:46:07.598Z,30.38
2017-08-05T12:48:39.099Z,30.19
2017-08-05T12:51:12.790Z,30.34
2017-08-05T12:53:46.020Z,30.83
2017-08-05T12:56:36.435Z,30.90
2017-08-05T12:59:15.057Z,31.93
2017-08-05T13:01:46.506Z,32.44
2017-08-05T13:04:22.489Z,33.44
2017-08-05T13:06:57.459Z,34.01
2017-08-05T13:09:32.482Z,34.68
2017-08-05T13:12:04.842Z,35.44
2017-08-05T13:14:39.064Z,35.68
2017-08-05T13:17:15.185Z,37.24
2017-08-05T13:19:48.771Z,37.61
2017-08-05T13:22:22.841Z,36.27
2017-08-05T13:24:56.458Z,33.92
2017-08-05T13:27:32.482Z,32.01
2017-08-05T13:30:10.465Z,31.29
2017-08-05T13:32:44.864Z,30.35
2017-08-05T13:35:18.681Z,30.99
2017-08-05T13:37:55.161Z,34.11
2017-08-05T13:40:34.506Z,37.27
2017-08-05T13:43:12.231Z,38.87
2017-08-05T13:45:46.627Z,40.87
2017-08-05T13:48:18.466Z,42.64
2017-08-05T13:50:50.919Z,43.71
2017-08-05T13:53:23.477Z,44.39
2017-08-05T13:55:54.621Z,44.50
2017-08-05T13:58:30.396Z,42.11
2017-08-05T14:01:07.322Z,41.46
2017-08-05T14:03:41.305Z,41.88
2017-08-05T14:06:18.715Z,41.67
2017-08-05T14:08:54.484Z,41.71
2017-08-05T14:11:26.925Z,41.46
2017-08-05T14:14:00.379Z,39.43
2017-08-05T14:16:40.332Z,36.44
2017-08-05T14:19:15.619Z,35.02
2017-08-05T14:21:46.977Z,34.17
2017-08-05T14:24:18.096Z,34.76
2017-08-05T14:26:50.212Z,35.14
2017-08-05T14:29:24.271Z,34.13
2017-08-05T14:31:56.072Z,33.59
2017-08-05T14:34:27.457Z,33.33
2017-08-05T14:37:00.822Z,32.70
2017-08-05T14:39:35.187Z,33.77
2017-08-05T14:42:14.461Z,37.40
2017-08-05T14:44:46.473Z,41.74
2017-08-05T14:47:18.617Z,44.68
2017-08-05T14:49:50.791Z,44.68
2017-08-05T14:52:25.409Z,43.23
2017-08-05T14:55:36.257Z,41.39
2017-08-05T14:58:15.149Z,42.23
2017-08-05T15:00:49.052Z,42.89
2017-08-05T15:03:22.025Z,43.95
2017-08-05T15:05:55.587Z,44.52
2017-08-05T15:08:30.387Z,45.47
2017-08-05T15:11:06.333Z,45.28
2017-08-05T15:13:41.757Z,45.80
2017-08-05T15:16:15.147Z,45.62
2017-08-05T15:18:49.250Z,44.03
2017-08-05T15:21:21.565Z,42.29
2017-08-05T15:23:57.733Z,41.92
2017-08-05T15:26:31.664Z,42.48
2017-08-05T15:29:09.735Z,40.96
2017-08-05T15:31:44.522Z,39.00
2017-08-05T15:34:20.494Z,37.03
2017-08-05T15:36:54.339Z,35.23
2017-08-05T15:39:28.068Z,34.91
2017-08-05T15:42:04.485Z,34.29
2017-08-05T15:44:36.053Z,33.78
2017-08-05T15:47:12.007Z,33.09
2017-08-05T15:49:44.219Z,32.43
2017-08-05T15:52:24.143Z,31.84
2017-08-05T15:55:01.760Z,31.36
2017-08-05T15:57:36.042Z,30.82
2017-08-05T16:00:18.526Z,30.44
2017-08-05T16:02:51.879Z,30.04
2017-08-05T16:05:26.636Z,29.71
2017-08-05T16:08:02.914Z,29.41
2017-08-05T16:10:34.904Z,29.03
2017-08-05T16:13:08.079Z,28.76
2017-08-05T16:15:39.895Z,28.66
2017-08-05T16:18:11.003Z,28.44
2017-08-05T16:20:42.040Z,28.42
2017-08-05T16:23:13.323Z,28.19
2017-08-05T16:25:44.760Z,28.03
2017-08-05T16:28:16.855Z,27.92
2017-08-05T16:30:50.045Z,27.66
2017-08-05T16:33:25.140Z,27.54
2017-08-05T16:35:59.345Z,27.52
2017-08-05T16:38:30.372Z,27.43
2017-08-05T16:41:03.987Z,27.30
2017-08-05T16:43:35.414Z,27.15
2017-08-05T16:46:08.427Z,26.95
2017-08-05T16:48:40.151Z,26.94
2017-08-05T16:51:12.657Z,26.80
2017-08-05T16:53:44.659Z,26.71
2017-08-05T16:56:18.929Z,26.51
2017-08-05T16:58:52.491Z,26.45
2017-08-05T17:01:23.790Z,26.32
2017-08-05T17:03:58.829Z,26.23
2017-08-05T17:06:30.462Z,26.24
2017-08-05T17:09:03.061Z,26.05
2017-08-05T17:11:34.471Z,26.03
2017-08-05T17:14:08.379Z,26.09
2017-08-05T17:16:41.403Z,26.09
2017-08-05T17:19:14.413Z,26.12
2017-08-05T17:21:46.448Z,26.04
2017-08-05T17:24:18.689Z,26.05
2017-08-05T17:26:50.627Z,25.96
2017-08-05T17:29:22.165Z,26.01
2017-08-05T17:31:55.629Z,25.90
2017-08-05T17:34:28.053Z,25.99
2017-08-05T17:37:00.579Z,26.07
2017-08-05T17:39:31.984Z,25.96
2017-08-05T17:42:06.412Z,25.99
2017-08-05T17:44:38.785Z,26.06
2017-08-05T17:47:10.441Z,26.06
2017-08-05T17:49:41.858Z,26.26
2017-08-05T17:52:12.904Z,26.66
2017-08-05T17:54:44.208Z,26.89
2017-08-05T17:57:16.887Z,27.11
2017-08-05T17:59:47.967Z,26.91
2017-08-05T18:02:20.992Z,26.98
2017-08-05T18:04:54.091Z,26.77
2017-08-05T18:07:25.414Z,26.50
2017-08-05T18:09:57.549Z,26.00
2017-08-05T18:12:29.486Z,25.81
2017-08-05T18:15:01.202Z,25.66
2017-08-05T18:17:36.351Z,25.50
2017-08-05T18:20:14.566Z,25.39
2017-08-05T18:22:49.769Z,25.16
2017-08-05T18:25:44.454Z,25.06
2017-08-05T18:31:50.230Z,24.81
2017-08-05T18:34:21.865Z,24.64
2017-08-05T18:36:53.735Z,24.54
2017-08-05T18:39:24.978Z,24.43
2017-08-05T18:41:56.075Z,24.35
2017-08-05T18:44:27.503Z,24.22
2017-08-05T18:46:58.790Z,24.19
2017-08-05T18:49:30.960Z,24.03
2017-08-05T18:52:03.977Z,23.95
2017-08-05T18:54:35.060Z,23.93
2017-08-05T18:57:07.191Z,23.85
2017-08-05T18:59:38.324Z,23.77
2017-08-05T19:02:09.542Z,23.72
2017-08-05T19:04:42.032Z,23.69
2017-08-05T19:07:13.220Z,23.59
2017-08-05T19:09:44.400Z,23.57
2017-08-05T19:12:16.092Z,23.54
2017-08-05T19:14:48.018Z,23.45
2017-08-05T19:17:19.551Z,23.42
2017-08-05T19:19:52.179Z,23.37
2017-08-05T19:22:24.357Z,23.22
2017-08-05T19:24:56.152Z,23.13
2017-08-05T19:27:27.389Z,23.15
2017-08-05T19:29:59.860Z,23.17
2017-08-05T19:32:31.021Z,23.15
2017-08-05T19:35:02.417Z,23.10
2017-08-05T19:37:35.124Z,22.95
2017-08-05T19:40:06.822Z,22.96
2017-08-05T19:42:38.571Z,22.96
2017-08-05T19:45:10.289Z,22.95
2017-08-05T19:47:42.051Z,22.91
2017-08-05T19:50:13.215Z,22.83
2017-08-05T19:52:45.041Z,22.78
2017-08-05T19:55:17.917Z,22.76
2017-08-05T19:57:50.896Z,22.75
2017-08-05T20:00:23.317Z,22.74
2017-08-05T20:02:54.972Z,22.69
2017-08-05T20:05:26.479Z,22.67
2017-08-05T20:07:57.788Z,22.66
2017-08-05T20:10:28.866Z,22.63
2017-08-05T20:13:00.757Z,22.56
2017-08-05T20:15:32.957Z,22.58
2017-08-05T20:18:05.924Z,22.55
2017-08-05T20:20:37.712Z,22.49
2017-08-05T20:23:08.754Z,22.48
2017-08-05T20:25:41.116Z,22.44
2017-08-05T20:28:12.953Z,22.38
2017-08-05T20:30:44.799Z,22.32
2017-08-05T20:33:15.912Z,22.31
2017-08-05T20:35:47.269Z,22.23
2017-08-05T20:38:18.841Z,22.19
2017-08-05T20:40:50.261Z,22.17
2017-08-05T20:43:22.240Z,22.17
2017-08-05T20:45:53.712Z,22.20
2017-08-05T20:48:24.791Z,22.19
2017-08-05T20:50:56.400Z,22.15
2017-08-05T20:53:28.105Z,22.17
2017-08-05T20:55:59.328Z,22.19
2017-08-05T20:58:30.717Z,22.15
2017-08-05T21:01:02.107Z,22.10
2017-08-05T21:03:33.613Z,22.07
2017-08-05T21:06:06.663Z,22.01
2017-08-05T21:08:39.648Z,22.00
2017-08-05T21:11:11.240Z,22.00
2017-08-05T21:13:42.675Z,22.00
2017-08-05T21:16:13.869Z,21.96
2017-08-05T21:18:45.542Z,22.00
2017-08-05T21:21:16.711Z,22.01
2017-08-05T21:23:48.983Z,22.03
2017-08-05T21:26:20.158Z,22.08
2017-08-05T21:28:51.454Z,22.09
2017-08-05T21:31:22.807Z,22.07
2017-08-05T21:33:54.699Z,22.09
2017-08-05T21:36:25.921Z,22.12
2017-08-05T21:38:58.469Z,22.14
2017-08-05T21:41:29.585Z,22.13
2017-08-05T21:44:00.952Z,22.14
2017-08-05T21:46:32.536Z,22.17
2017-08-05T21:49:03.641Z,22.15
2017-08-05T21:51:35.661Z,22.08
2017-08-05T21:54:08.978Z,22.05
2017-08-05T21:56:40.140Z,22.05
2017-08-05T21:59:11.599Z,21.99
2017-08-05T22:01:43.521Z,21.88
2017-08-05T22:04:14.872Z,21.82
2017-08-05T22:06:46.738Z,21.77
2017-08-05T22:09:17.918Z,21.74
2017-08-05T22:11:49.611Z,21.71
2017-08-05T22:14:20.718Z,21.64
2017-08-05T22:16:52.347Z,21.55
2017-08-05T22:19:24.716Z,21.53
2017-08-05T22:21:56.122Z,21.52
2017-08-05T22:24:27.471Z,21.51
2017-08-05T22:26:59.715Z,21.47
2017-08-05T22:29:31.476Z,21.44
2017-08-05T22:32:03.401Z,21.37
2017-08-05T22:34:35.986Z,21.29
2017-08-05T22:37:07.103Z,21.24
2017-08-05T22:39:38.729Z,21.26
2017-08-05T22:42:10.849Z,21.22
2017-08-05T22:44:42.035Z,21.13
2017-08-05T22:47:13.651Z,21.08
2017-08-05T22:49:45.431Z,21.07
2017-08-05T22:52:18.098Z,21.04
2017-08-05T22:54:49.274Z,21.01
2017-08-05T22:57:20.428Z,20.99
2017-08-05T22:59:52.242Z,20.96
2017-08-05T23:02:24.447Z,20.95
2017-08-05T23:04:55.575Z,20.93
2017-08-05T23:07:26.936Z,20.94
2017-08-05T23:09:58.033Z,20.94
2017-08-05T23:12:29.578Z,20.92
2017-08-05T23:15:01.146Z,20.88
2017-08-05T23:17:32.547Z,20.88
2017-08-05T23:20:07.217Z,20.86
2017-08-05T23:22:40.325Z,20.86
2017-08-05T23:25:13.961Z,20.83
2017-08-05T23:27:46.362Z,20.80
2017-08-05T23:30:18.133Z,20.77
2017-08-05T23:32:49.774Z,20.73
2017-08-05T23:35:21.492Z,20.70
2017-08-05T23:37:53.085Z,20.67
2017-08-05T23:40:24.949Z,20.66
2017-08-05T23:42:57.317Z,20.63
2017-08-05T23:45:35.645Z,20.60
2017-08-05T23:48:10.259Z,20.57
2017-08-05T23:50:44.327Z,20.48
2017-08-05T23:53:17.891Z,20.47
2017-08-05T23:55:49.340Z,20.46
2017-08-05T23:58:20.774Z,20.46
